Terminal Aerodrome Forecast
Issued by NWS Springfield, MO

Home | Current Version | Previous Version | Text Only | Print | Product List | Glossary On
Versions: 1 2 3 4 5 6 7 8 9 10 11 12 13 14 15 16
000
FTUS43 KSGF 221120
TAFSGF
TAF
KSGF 221120Z 2212/2312 03014G22KT 5SM -DZ BR OVC007
      TEMPO 2212/2215 2SM -DZ OVC004
     FM230100 02010KT P6SM OVC015
     FM230300 35006KT P6SM BKN090
     FM230600 35005KT P6SM SKC
      TEMPO 2309/2312 4SM BR=

USA.gov is the U.S. government's official web portal to all federal, state and local government web resources and services.